Parchment, Michigan
Current Conditions -  °F | °C
As of 10:35 AM on Monday 24 Nov 2014 (Local Time) from KAZO Reporting Station
Moderate Rain Moderate Rain  
Wind Chill: 52°   Ceiling: 400
Heat Index: 52°   Visibility: 1mi
Dew Point: 50°   Wind: 6mph
Humidity: 93%   Direction: 280°W
Pressure: 29.08"   Gusts: NA
Location:  42.3411°N, 85.532°W
Report Text: KAZO 241535Z 28005KT 1SM R35/4500VP6000FT RA BR OVC004 11/10 A2908 RMK AO2 RAB07 P0003 T01110100
Loading
Personal Weather Stations






























Interactive Weather Map New forecast layout! Learn more

10-Day Weather Forecast

Advertisements
Track Severe Weather on mobile